Time;durP1;ratioP1;P1;durP2;ratioP2;P2;SDS_P1;SDS_P2;PMS_P1;PMS_P2;Temp;Humidity;BMP_temperature;BMP_pressure;BME280_temperature;BME280_humidity;BME280_pressure;Samples;Min_cycle;Max_cycle;Signal;HPM_P1;HPM_P2
2023/10/19 00:01:16;;;;;;;5.47;4.07;;;8.10;99.90;;;;;;4971389;28;20050;-77
2023/10/19 00:03:44;;;;;;;10.38;3.28;;;8.10;99.90;;;;;;4969873;28;20050;-78
2023/10/19 00:06:11;;;;;;;8.52;6.25;;;8.10;99.90;;;;;;4969004;28;20167;-77
2023/10/19 00:08:46;;;;;;;7.15;6.50;;;8.10;99.90;;;;;;4951068;28;20054;-77
2023/10/19 00:11:21;;;;;;;6.22;3.60;;;8.10;99.90;;;;;;4986967;28;20061;-77
2023/10/19 00:13:50;;;;;;;5.72;4.97;;;8.00;99.90;;;;;;4972381;28;20586;-78
2023/10/19 00:16:16;;;;;;;4.57;4.25;;;8.00;99.90;;;;;;4976764;28;20074;-78
2023/10/19 00:18:52;;;;;;;13.20;5.28;;;8.00;99.90;;;;;;4979977;28;20042;-77
2023/10/19 00:23:47;;;;;;;6.20;5.68;;;8.00;99.90;;;;;;4983985;28;20109;-78
2023/10/19 00:26:24;;;;;;;;;;;8.00;99.90;;;;;;4977340;28;21683;-77
2023/10/19 00:28:55;;;;;;;14.88;7.15;;;8.00;99.90;;;;;;4973287;28;19937;-78
2023/10/19 00:31:22;;;;;;;7.15;5.90;;;8.00;99.90;;;;;;4974359;28;20042;-78
2023/10/19 00:33:51;;;;;;;4.45;3.85;;;8.00;99.90;;;;;;4974718;28;20723;-78
2023/10/19 00:36:20;;;;;;;6.18;5.60;;;8.00;99.90;;;;;;4973728;28;20049;-77
2023/10/19 00:41:28;;;;;;;10.50;6.75;;;8.00;99.90;;;;;;4973738;28;20059;-77
2023/10/19 00:44:05;;;;;;;6.82;6.30;;;8.00;99.90;;;;;;4994088;28;20157;-78
2023/10/19 00:46:43;;;;;;;7.95;7.18;;;8.00;99.90;;;;;;4974650;28;20088;-77
2023/10/19 00:49:13;;;;;;;5.97;5.43;;;8.00;99.90;;;;;;4976354;28;20034;-78
2023/10/19 00:52:10;;;;;;;9.95;4.90;;;8.00;99.90;;;;;;4979861;28;20479;-77
2023/10/19 00:55:12;;;;;;;6.97;5.55;;;8.00;99.90;;;;;;4999833;28;20042;-78
2023/10/19 00:57:34;;;;;;;11.00;5.88;;;8.00;99.90;;;;;;4986045;28;20577;-78
2023/10/19 01:00:21;;;;;;;5.85;5.25;;;8.00;99.90;;;;;;4984470;28;20466;-78
2023/10/19 01:02:51;;;;;;;9.05;6.20;;;8.00;99.90;;;;;;4986280;28;20046;-78
2023/10/19 01:05:21;;;;;;;4.13;3.72;;;8.00;99.90;;;;;;5002298;28;20050;-78
2023/10/19 01:07:53;;;;;;;8.05;5.80;;;8.00;99.90;;;;;;4989399;28;20113;-78
2023/10/19 01:10:23;;;;;;;11.07;4.70;;;8.00;99.90;;;;;;4988681;28;20105;-77
2023/10/19 01:12:50;;;;;;;5.75;5.25;;;7.90;99.90;;;;;;4987540;28;20142;-77
2023/10/19 01:15:17;;;;;;;5.72;5.10;;;8.00;99.90;;;;;;4987720;28;20851;-78
2023/10/19 01:17:52;;;;;;;8.10;4.57;;;8.00;99.90;;;;;;4984884;28;20042;-78
2023/10/19 01:20:33;;;;;;;6.43;4.65;;;8.00;99.90;;;;;;4972710;28;20054;-76
2023/10/19 01:28:43;;;;;;;17.30;8.77;;;8.00;99.90;;;;;;4988434;28;20054;-76
2023/10/19 01:31:22;;;;;;;14.77;7.18;;;8.00;99.90;;;;;;4978392;28;20096;-77
2023/10/19 01:33:48;;;;;;;8.25;6.82;;;8.00;99.90;;;;;;4974161;28;20177;-77
2023/10/19 01:36:50;;;;;;;5.97;5.28;;;8.00;99.90;;;;;;4954896;28;20053;-77
2023/10/19 01:39:09;;;;;;;8.60;7.63;;;8.00;99.90;;;;;;4970114;28;20042;-78
2023/10/19 01:41:35;;;;;;;5.65;5.07;;;8.00;99.90;;;;;;4972613;28;20062;-77
2023/10/19 01:44:06;;;;;;;3.72;3.25;;;8.00;99.90;;;;;;4973037;28;20062;-78
2023/10/19 01:46:33;;;;;;;3.58;2.95;;;8.00;99.90;;;;;;4973830;28;20074;-78
2023/10/19 01:49:03;;;;;;;6.65;6.05;;;8.00;99.90;;;;;;4976134;28;20051;-79
2023/10/19 01:51:38;;;;;;;9.30;5.25;;;7.90;99.90;;;;;;4975464;28;20045;-78
2023/10/19 01:54:08;;;;;;;13.45;6.47;;;8.00;99.90;;;;;;4972982;28;20058;-78
2023/10/19 01:56:35;;;;;;;4.85;4.43;;;8.00;99.90;;;;;;4973188;28;20046;-78
2023/10/19 01:59:03;;;;;;;6.63;5.70;;;8.00;99.90;;;;;;4960262;28;20070;-77
2023/10/19 02:01:29;;;;;;;9.20;4.78;;;8.00;99.90;;;;;;4952538;28;20134;-78
2023/10/19 02:04:00;;;;;;;8.02;5.68;;;8.00;99.90;;;;;;4937145;28;20415;-78
2023/10/19 02:06:35;;;;;;;7.53;4.90;;;8.00;99.90;;;;;;4951442;28;20058;-78
2023/10/19 02:09:09;;;;;;;6.88;3.97;;;8.00;99.90;;;;;;4937906;28;20078;-78
2023/10/19 02:11:41;;;;;;;6.05;5.35;;;8.00;99.90;;;;;;4953089;28;20816;-77
2023/10/19 02:14:14;;;;;;;7.78;6.18;;;8.00;99.90;;;;;;4971456;28;20932;-78
2023/10/19 02:16:41;;;;;;;6.18;4.38;;;8.00;99.90;;;;;;4954542;28;20058;-78
2023/10/19 02:19:07;;;;;;;4.40;3.97;;;7.90;99.90;;;;;;4972449;28;20062;-78
2023/10/19 02:21:38;;;;;;;10.02;5.30;;;8.00;99.90;;;;;;4954171;28;20058;-79
2023/10/19 02:24:04;;;;;;;4.13;3.58;;;8.00;99.90;;;;;;4955667;28;20049;-78
2023/10/19 02:26:31;;;;;;;3.92;3.72;;;8.00;99.90;;;;;;4952311;28;20050;-78
2023/10/19 02:28:58;;;;;;;24.77;6.05;;;8.00;99.90;;;;;;4951424;28;20054;-78
2023/10/19 02:31:25;;;;;;;10.15;4.18;;;8.00;99.90;;;;;;4955029;28;20054;-78
2023/10/19 02:34:00;;;;;;;7.90;5.60;;;8.00;99.90;;;;;;4953179;28;20560;-79
2023/10/19 02:36:30;;;;;;;5.97;5.38;;;8.00;99.90;;;;;;4955332;28;20126;-79
2023/10/19 02:38:59;;;;;;;7.63;5.93;;;8.00;99.90;;;;;;4952930;28;20050;-79
2023/10/19 02:41:26;;;;;;;3.47;3.28;;;8.00;99.90;;;;;;4967572;28;20051;-79
2023/10/19 02:44:09;;;;;;;3.63;3.38;;;8.00;99.90;;;;;;4953153;28;20165;-80
2023/10/19 02:46:41;;;;;;;7.50;3.30;;;8.00;99.90;;;;;;4953629;28;20050;-80
2023/10/19 02:49:18;;;;;;;4.78;4.38;;;8.00;99.90;;;;;;4970314;28;20090;-80
2023/10/19 02:51:45;;;;;;;22.08;6.60;;;8.00;99.90;;;;;;4952044;28;20146;-79
2023/10/19 02:54:17;;;;;;;6.80;5.35;;;8.00;99.90;;;;;;4963917;28;20054;-80
2023/10/19 02:56:47;;;;;;;4.20;2.85;;;8.10;99.90;;;;;;4981979;28;20050;-80
2023/10/19 02:59:15;;;;;;;3.70;3.03;;;8.00;99.90;;;;;;4947804;28;20097;-80
2023/10/19 03:01:44;;;;;;;5.43;4.00;;;8.00;99.90;;;;;;4967167;28;20507;-80
2023/10/19 03:04:12;;;;;;;2.55;2.35;;;8.00;99.90;;;;;;4967456;28;20498;-80
2023/10/19 03:06:40;;;;;;;5.18;4.00;;;8.00;99.90;;;;;;4967145;28;20055;-80
2023/10/19 03:09:22;;;;;;;4.15;3.53;;;8.00;99.90;;;;;;4966486;28;20482;-80
2023/10/19 03:11:52;;;;;;;6.93;3.95;;;8.00;99.90;;;;;;4964644;28;20059;-80
2023/10/19 03:14:18;;;;;;;6.30;5.00;;;8.10;99.90;;;;;;4948717;28;20062;-80
2023/10/19 03:16:45;;;;;;;5.47;5.00;;;8.00;99.90;;;;;;4964213;28;20031;-80
2023/10/19 03:19:12;;;;;;;5.40;4.10;;;8.10;99.90;;;;;;4961258;28;20365;-81
2023/10/19 03:21:42;;;;;;;4.80;3.92;;;8.10;99.90;;;;;;4967434;28;20047;-81
2023/10/19 03:24:34;;;;;;;4.10;3.20;;;8.10;99.90;;;;;;4950603;28;20094;-80
2023/10/19 03:27:00;;;;;;;5.80;4.95;;;8.10;99.90;;;;;;4949496;28;20507;-80
2023/10/19 03:29:31;;;;;;;3.97;2.85;;;8.10;99.90;;;;;;4963069;28;20045;-80
2023/10/19 03:31:58;;;;;;;3.88;3.67;;;8.10;99.90;;;;;;4966145;28;20400;-79
2023/10/19 03:34:24;;;;;;;3.28;3.05;;;8.10;99.90;;;;;;4953639;28;20118;-79
2023/10/19 03:36:51;;;;;;;2.92;2.63;;;8.10;99.90;;;;;;4968134;28;20099;-79
2023/10/19 03:39:18;;;;;;;3.30;3.10;;;8.10;99.90;;;;;;4952742;28;20043;-79
2023/10/19 03:41:44;;;;;;;2.55;2.35;;;8.10;99.90;;;;;;4954372;28;20043;-79
2023/10/19 03:44:20;;;;;;;5.28;3.28;;;8.10;99.90;;;;;;4952083;28;20053;-79
2023/10/19 03:47:01;;;;;;;2.63;2.22;;;8.10;99.90;;;;;;4953475;28;20062;-80
2023/10/19 03:49:38;;;;;;;2.60;2.40;;;8.10;99.90;;;;;;4954882;28;20842;-80
2023/10/19 03:52:20;;;;;;;3.05;2.17;;;8.10;99.90;;;;;;4942030;28;21768;-80
2023/10/19 03:54:47;;;;;;;4.57;2.72;;;8.10;99.90;;;;;;4960657;28;20062;-80
2023/10/19 03:57:20;;;;;;;3.13;2.85;;;8.10;99.90;;;;;;4942382;28;20053;-80
2023/10/19 03:59:53;;;;;;;2.65;2.45;;;8.10;99.90;;;;;;4959800;28;20940;-79
2023/10/19 04:02:29;;;;;;;3.70;3.20;;;8.10;99.90;;;;;;4956048;28;20051;-80
2023/10/19 04:04:57;;;;;;;2.58;2.38;;;8.10;99.90;;;;;;4957427;28;20133;-79
2023/10/19 04:07:26;;;;;;;2.15;1.27;;;8.20;99.90;;;;;;4937642;28;20046;-80
2023/10/19 04:12:37;;;;;;;2.15;2.05;;;8.20;99.90;;;;;;4956825;28;20066;-80
2023/10/19 04:15:16;;;;;;;4.07;2.67;;;8.20;99.90;;;;;;4956297;28;20051;-79
2023/10/19 04:17:43;;;;;;;2.55;1.75;;;8.20;99.90;;;;;;4942593;28;20484;-80
2023/10/19 04:22:45;;;;;;;1.77;1.67;;;8.20;99.90;;;;;;4956448;28;20538;-80
2023/10/19 04:25:16;;;;;;;2.13;1.73;;;8.20;99.90;;;;;;4940774;28;20062;-80
2023/10/19 04:27:43;;;;;;;2.90;2.67;;;8.20;99.90;;;;;;4969421;28;20050;-80
2023/10/19 04:30:26;;;;;;;1.10;1.08;;;8.20;99.90;;;;;;4955832;28;20082;-80
2023/10/19 04:32:53;;;;;;;2.95;2.15;;;8.20;99.90;;;;;;4973765;28;20043;-80
2023/10/19 04:35:22;;;;;;;2.50;1.90;;;8.20;99.90;;;;;;4954949;28;20070;-80
2023/10/19 04:37:50;;;;;;;2.13;2.03;;;8.20;99.90;;;;;;4957834;28;20077;-80
2023/10/19 04:40:16;;;;;;;2.88;2.28;;;8.20;99.90;;;;;;4940644;28;20177;-80
2023/10/19 04:42:42;;;;;;;3.13;2.90;;;8.20;99.90;;;;;;4956853;28;20051;-80
2023/10/19 04:45:08;;;;;;;1.88;1.75;;;8.20;99.90;;;;;;4954781;28;20125;-79
2023/10/19 04:47:35;;;;;;;1.60;1.42;;;8.20;99.90;;;;;;4959606;28;20050;-80
2023/10/19 04:50:10;;;;;;;9.02;2.13;;;8.20;99.90;;;;;;4938581;28;20054;-80
2023/10/19 04:52:36;;;;;;;2.47;2.25;;;8.30;99.90;;;;;;4962820;28;20045;-80
2023/10/19 04:55:02;;;;;;;4.05;3.40;;;8.30;99.90;;;;;;4968093;28;20047;-79
2023/10/19 04:57:28;;;;;;;3.65;2.08;;;8.30;99.90;;;;;;4952738;28;20059;-80
2023/10/19 04:59:55;;;;;;;5.80;4.32;;;8.20;99.90;;;;;;4984277;28;20053;-80
2023/10/19 05:02:21;;;;;;;3.30;3.00;;;8.30;99.90;;;;;;4986546;28;20570;-80
2023/10/19 05:04:47;;;;;;;1.63;1.52;;;8.20;99.90;;;;;;4989177;28;20058;-80
2023/10/19 05:07:16;;;;;;;2.53;2.33;;;8.30;99.90;;;;;;5001104;28;20039;-80
2023/10/19 05:09:45;;;;;;;1.35;1.17;;;8.30;99.90;;;;;;4988241;28;20058;-79
2023/10/19 05:12:11;;;;;;;1.30;1.20;;;8.30;99.90;;;;;;4985039;28;20042;-80
2023/10/19 05:14:41;;;;;;;2.53;1.90;;;8.30;99.90;;;;;;4982655;28;20566;-80
2023/10/19 05:17:12;;;;;;;2.35;2.13;;;8.30;99.90;;;;;;4987682;28;20207;-80
2023/10/19 05:19:39;;;;;;;1.92;1.33;;;8.30;99.90;;;;;;4987993;28;20121;-80
2023/10/19 05:22:07;;;;;;;1.33;1.27;;;8.30;99.90;;;;;;4968984;28;20053;-80
2023/10/19 05:24:35;;;;;;;0.73;0.73;;;8.30;99.90;;;;;;4988226;28;20054;-80
2023/10/19 05:27:01;;;;;;;;;;;8.40;99.90;;;;;;4988018;28;20050;-80
2023/10/19 05:29:27;;;;;;;3.50;2.05;;;8.30;99.90;;;;;;4974637;28;20537;-80
2023/10/19 05:31:54;;;;;;;0.80;0.73;;;8.30;99.90;;;;;;4975294;28;20046;-80
2023/10/19 05:34:24;;;;;;;1.15;1.15;;;8.40;99.90;;;;;;4989930;28;20101;-80
2023/10/19 05:36:49;;;;;;;2.95;2.00;;;8.30;99.90;;;;;;4974982;28;20042;-80
2023/10/19 05:39:16;;;;;;;1.98;1.67;;;8.40;99.90;;;;;;4976797;28;20542;-79
2023/10/19 05:41:42;;;;;;;2.28;1.85;;;8.30;99.90;;;;;;4973071;28;20057;-80
2023/10/19 05:44:08;;;;;;;2.00;1.90;;;8.40;99.90;;;;;;4975198;28;20050;-80
2023/10/19 05:46:33;;;;;;;1.77;1.67;;;8.40;99.90;;;;;;4974270;28;20047;-79
2023/10/19 05:49:01;;;;;;;3.40;3.10;;;8.30;99.90;;;;;;4956088;28;20100;-80
2023/10/19 05:51:27;;;;;;;2.50;2.40;;;8.40;99.90;;;;;;4976072;28;21429;-80
2023/10/19 05:53:54;;;;;;;2.38;2.20;;;8.30;99.90;;;;;;4978365;28;20487;-80
2023/10/19 05:56:21;;;;;;;2.65;1.13;;;8.30;99.90;;;;;;4986804;28;20518;-80
2023/10/19 05:58:50;;;;;;;1.75;1.60;;;8.30;99.90;;;;;;4977701;28;20137;-80
2023/10/19 06:01:19;;;;;;;4.65;1.52;;;8.30;99.90;;;;;;4970055;28;20488;-80
2023/10/19 06:03:48;;;;;;;1.00;1.00;;;8.40;99.90;;;;;;4962890;28;20042;-80
2023/10/19 06:06:29;;;;;;;1.70;1.65;;;8.30;99.90;;;;;;4971481;28;20098;-80
2023/10/19 06:08:55;;;;;;;2.33;1.23;;;8.30;99.90;;;;;;4969413;28;20045;-80
2023/10/19 06:11:21;;;;;;;1.65;1.65;;;8.30;99.90;;;;;;4967276;28;20046;-79
2023/10/19 06:13:47;;;;;;;2.38;2.05;;;8.30;99.90;;;;;;4962649;28;20649;-80
2023/10/19 06:16:14;;;;;;;1.35;1.25;;;8.40;99.90;;;;;;4960356;28;20472;-80
2023/10/19 06:18:43;;;;;;;1.35;1.30;;;8.40;99.90;;;;;;4984125;28;20046;-80
2023/10/19 06:21:09;;;;;;;1.15;1.10;;;8.40;99.90;;;;;;4946251;28;20043;-81
2023/10/19 06:23:36;;;;;;;1.17;1.17;;;8.40;99.90;;;;;;4966960;28;20057;-80
2023/10/19 06:26:11;;;;;;;1.20;1.10;;;8.40;99.90;;;;;;4968046;28;20050;-80
2023/10/19 06:28:38;;;;;;;1.38;1.27;;;8.40;99.90;;;;;;4963372;28;20462;-80
2023/10/19 06:31:04;;;;;;;2.65;2.45;;;8.40;99.90;;;;;;4966894;28;20057;-80
2023/10/19 06:33:32;;;;;;;0.80;0.80;;;8.40;99.90;;;;;;4967733;28;20427;-80
2023/10/19 06:35:59;;;;;;;1.80;1.70;;;8.40;99.90;;;;;;4966501;28;20046;-78
2023/10/19 06:38:25;;;;;;;1.55;1.42;;;8.40;99.90;;;;;;4961384;28;20054;-79
2023/10/19 06:40:51;;;;;;;3.25;1.67;;;8.40;99.90;;;;;;4962946;28;20122;-79
2023/10/19 06:43:17;;;;;;;1.52;1.42;;;8.40;99.90;;;;;;4951407;28;20503;-79
2023/10/19 06:45:46;;;;;;;0.65;0.60;;;8.40;99.90;;;;;;4962924;28;20110;-80
2023/10/19 06:48:11;;;;;;;1.30;1.23;;;8.50;99.90;;;;;;4966259;28;21777;-80
2023/10/19 06:50:37;;;;;;;4.68;2.03;;;8.40;99.90;;;;;;4963027;28;20077;-81
2023/10/19 06:53:05;;;;;;;0.90;0.90;;;8.40;99.90;;;;;;4943361;28;20131;-79
2023/10/19 06:55:31;;;;;;;2.03;1.77;;;8.40;99.90;;;;;;4967645;28;20039;-79
2023/10/19 06:57:57;;;;;;;2.63;1.42;;;8.50;99.90;;;;;;4965041;28;20130;-79
2023/10/19 07:00:26;;;;;;;2.25;1.63;;;8.50;99.90;;;;;;4982837;28;20050;-79
2023/10/19 07:02:54;;;;;;;1.50;1.40;;;8.50;99.90;;;;;;5001815;28;20073;-79
2023/10/19 07:05:22;;;;;;;1.65;1.55;;;8.50;99.90;;;;;;4978691;28;20170;-80
2023/10/19 07:07:50;;;;;;;1.35;1.25;;;8.50;99.90;;;;;;4985571;28;20522;-80
2023/10/19 07:10:17;;;;;;;;;;;8.50;99.90;;;;;;4984598;28;20133;-79
2023/10/19 07:12:44;;;;;;;2.75;1.42;;;8.50;99.90;;;;;;4980486;28;19929;-79
2023/10/19 07:15:13;;;;;;;2.28;1.33;;;8.50;99.90;;;;;;4983799;28;20423;-79
2023/10/19 07:17:41;;;;;;;3.45;1.65;;;8.50;99.90;;;;;;4984679;28;20419;-80
2023/10/19 07:20:08;;;;;;;1.27;1.13;;;8.50;99.90;;;;;;4969948;28;20034;-80
2023/10/19 07:22:38;;;;;;;1.27;1.13;;;8.50;99.90;;;;;;4965839;28;20046;-80
2023/10/19 07:25:06;;;;;;;2.83;1.50;;;8.50;99.90;;;;;;4982805;28;20050;-79
2023/10/19 07:27:33;;;;;;;1.98;1.85;;;8.60;99.90;;;;;;4985194;28;20062;-79
2023/10/19 07:30:00;;;;;;;1.23;1.13;;;8.60;99.90;;;;;;4984293;28;20050;-79
2023/10/19 07:32:25;;;;;;;1.30;1.20;;;8.60;99.90;;;;;;4985733;28;20522;-78
2023/10/19 07:34:51;;;;;;;2.10;1.38;;;8.60;99.90;;;;;;4986747;28;20046;-77
2023/10/19 07:37:17;;;;;;;1.70;1.60;;;8.60;99.90;;;;;;4984071;28;20049;-78
2023/10/19 07:39:50;;;;;;;3.60;1.60;;;8.60;99.90;;;;;;5004854;28;20048;-78
2023/10/19 07:42:17;;;;;;;1.10;1.10;;;8.70;99.90;;;;;;4985501;28;20897;-78
2023/10/19 07:44:42;;;;;;;1.00;0.90;;;8.70;99.90;;;;;;4985930;28;20112;-79
2023/10/19 07:47:09;;;;;;;1.50;1.40;;;8.70;99.90;;;;;;4985277;28;20054;-78
2023/10/19 07:49:41;;;;;;;1.52;1.42;;;8.70;99.90;;;;;;4980493;28;20049;-78
2023/10/19 07:52:07;;;;;;;0.77;0.77;;;8.70;99.90;;;;;;4986010;28;20054;-78
2023/10/19 07:54:36;;;;;;;1.70;1.65;;;8.70;99.90;;;;;;4985432;28;20118;-78
2023/10/19 07:57:05;;;;;;;1.13;1.13;;;8.70;99.90;;;;;;4981390;28;20038;-78
2023/10/19 07:59:32;;;;;;;0.70;0.70;;;8.70;99.90;;;;;;4952502;28;20105;-78
2023/10/19 08:02:01;;;;;;;0.70;0.70;;;8.70;99.90;;;;;;4947021;28;20042;-78
2023/10/19 08:04:27;;;;;;;1.77;1.63;;;8.70;99.90;;;;;;4989111;28;20059;-78
2023/10/19 08:06:53;;;;;;;1.25;1.15;;;8.80;99.90;;;;;;4963286;28;20051;-77
2023/10/19 08:09:22;;;;;;;1.55;1.45;;;8.80;99.90;;;;;;4965167;28;20042;-78
2023/10/19 08:11:55;;;;;;;1.52;0.63;;;8.80;99.90;;;;;;4967441;28;20050;-78
2023/10/19 08:14:24;;;;;;;1.05;1.05;;;8.80;99.90;;;;;;4964958;28;20216;-75
2023/10/19 08:16:50;;;;;;;2.05;1.50;;;8.80;99.90;;;;;;4961760;28;20078;-75
2023/10/19 08:19:16;;;;;;;2.53;2.22;;;8.90;99.90;;;;;;4966860;28;20055;-75
2023/10/19 08:21:42;;;;;;;1.90;1.58;;;8.90;99.90;;;;;;4965571;28;20047;-75
2023/10/19 08:24:13;;;;;;;0.80;0.80;;;8.90;99.90;;;;;;4963676;28;20418;-75
2023/10/19 08:26:41;;;;;;;2.55;1.50;;;8.90;99.90;;;;;;4950499;28;20042;-75
2023/10/19 08:29:12;;;;;;;1.92;1.05;;;8.90;99.90;;;;;;4964508;28;20050;-75
2023/10/19 08:31:42;;;;;;;0.70;0.70;;;8.90;99.90;;;;;;4965203;28;20110;-75
2023/10/19 08:34:11;;;;;;;1.65;1.50;;;8.90;99.90;;;;;;4960183;28;20047;-75
2023/10/19 08:36:42;;;;;;;0.68;0.68;;;8.90;99.90;;;;;;4952100;28;20051;-75
2023/10/19 08:39:11;;;;;;;2.05;1.75;;;9.00;99.90;;;;;;4961780;28;20050;-75
2023/10/19 08:41:39;;;;;;;1.50;1.42;;;8.90;99.90;;;;;;4953896;28;20050;-75
2023/10/19 08:44:10;;;;;;;1.83;1.65;;;9.00;99.90;;;;;;4967430;28;20059;-75
2023/10/19 08:46:45;;;;;;;1.23;1.23;;;9.00;99.90;;;;;;4969682;28;20073;-75
2023/10/19 08:49:12;;;;;;;0.80;0.80;;;9.10;99.90;;;;;;4969449;28;20043;-75
2023/10/19 08:51:39;;;;;;;1.85;1.75;;;9.10;99.90;;;;;;4969307;28;20058;-75
2023/10/19 08:54:05;;;;;;;1.25;1.08;;;9.10;99.90;;;;;;4969638;28;20062;-75
2023/10/19 08:56:33;;;;;;;1.10;1.05;;;9.10;99.90;;;;;;4965006;28;20055;-75
2023/10/19 08:59:00;;;;;;;2.67;1.77;;;9.10;99.90;;;;;;4949465;28;20046;-75
2023/10/19 09:01:28;;;;;;;2.30;1.50;;;9.10;99.90;;;;;;4966168;28;20302;-75
2023/10/19 09:04:00;;;;;;;1.00;1.00;;;9.20;99.90;;;;;;4967455;28;20141;-75
2023/10/19 09:06:28;;;;;;;1.35;1.25;;;9.20;99.90;;;;;;4967438;28;20412;-75
2023/10/19 09:08:55;;;;;;;1.50;1.40;;;9.20;99.90;;;;;;4969304;28;20051;-75
2023/10/19 09:11:21;;;;;;;1.52;1.48;;;9.20;99.90;;;;;;4955747;28;20061;-75
2023/10/19 09:13:52;;;;;;;2.85;2.65;;;9.20;99.90;;;;;;4968393;28;20046;-75
2023/10/19 09:16:22;;;;;;;0.70;0.70;;;9.30;99.90;;;;;;4963169;28;20121;-75
2023/10/19 09:18:50;;;;;;;0.93;0.93;;;9.20;99.90;;;;;;4968026;28;20046;-75
2023/10/19 09:21:27;;;;;;;1.40;1.30;;;9.30;99.90;;;;;;4965522;28;20043;-75
2023/10/19 09:23:55;;;;;;;2.00;1.83;;;9.30;99.90;;;;;;4952880;28;20082;-75
2023/10/19 09:26:22;;;;;;;2.65;1.98;;;9.30;99.90;;;;;;4963835;28;20179;-75
2023/10/19 09:28:49;;;;;;;3.00;2.75;;;9.30;99.90;;;;;;4961645;28;20093;-75
2023/10/19 09:31:16;;;;;;;2.13;1.42;;;9.30;99.90;;;;;;4964469;28;20415;-76
2023/10/19 09:33:46;;;;;;;1.55;1.45;;;9.30;99.90;;;;;;4952933;28;20058;-76
2023/10/19 09:36:13;;;;;;;1.38;1.27;;;9.30;99.90;;;;;;4967072;28;20090;-77
2023/10/19 09:38:51;;;;;;;1.58;1.48;;;9.30;99.90;;;;;;4969330;28;20073;-77
2023/10/19 09:41:28;;;;;;;2.63;2.08;;;9.40;99.90;;;;;;4966661;28;20042;-77
2023/10/19 09:44:02;;;;;;;2.20;1.73;;;9.40;99.90;;;;;;4967616;28;20038;-76
2023/10/19 09:46:31;;;;;;;1.98;1.85;;;9.50;99.90;;;;;;4968481;28;20786;-76
2023/10/19 09:48:59;;;;;;;1.10;1.08;;;9.50;99.90;;;;;;4967362;28;20462;-76
2023/10/19 09:51:25;;;;;;;1.60;1.50;;;9.50;99.90;;;;;;4952625;28;20129;-76
2023/10/19 09:53:59;;;;;;;1.10;1.10;;;9.50;99.90;;;;;;4954766;28;20054;-75
2023/10/19 09:56:31;;;;;;;1.08;1.08;;;9.50;99.90;;;;;;4953301;28;20047;-75
2023/10/19 09:59:31;;;;;;;0.70;0.70;;;9.60;99.90;;;;;;4951375;28;20059;-75
2023/10/19 10:02:07;;;;;;;1.50;1.42;;;9.60;99.90;;;;;;4936040;28;20058;-75
2023/10/19 10:04:37;;;;;;;3.88;1.55;;;9.60;99.90;;;;;;4950068;28;20051;-74
2023/10/19 10:07:06;;;;;;;3.90;2.13;;;9.60;99.90;;;;;;4951742;28;20053;-75
2023/10/19 10:09:44;;;;;;;1.98;1.75;;;9.60;99.90;;;;;;4952102;28;20078;-74
2023/10/19 10:12:17;;;;;;;1.77;1.10;;;9.60;99.90;;;;;;4933788;28;20556;-74
2023/10/19 10:15:01;;;;;;;6.65;2.55;;;9.60;99.90;;;;;;4952091;28;20138;-74
2023/10/19 10:17:28;;;;;;;1.80;1.70;;;9.70;99.90;;;;;;4957112;28;20057;-75
2023/10/19 10:20:17;;;;;;;0.77;0.77;;;9.70;99.90;;;;;;4941545;28;20074;-75
2023/10/19 10:22:43;;;;;;;1.00;1.00;;;9.70;99.90;;;;;;4953137;28;20058;-75
2023/10/19 10:25:27;;;;;;;2.55;2.20;;;9.70;99.90;;;;;;4952229;28;20054;-74
2023/10/19 10:27:54;;;;;;;1.60;1.50;;;9.80;99.90;;;;;;4970752;28;20120;-74
2023/10/19 10:30:20;;;;;;;2.85;2.65;;;9.90;99.90;;;;;;4932828;28;20050;-75
2023/10/19 10:32:54;;;;;;;1.88;1.77;;;9.90;99.90;;;;;;4952563;28;20093;-75
2023/10/19 10:35:41;;;;;;;2.17;2.05;;;10.00;99.90;;;;;;4935169;28;20046;-74
2023/10/19 10:38:14;;;;;;;2.45;2.33;;;10.00;99.90;;;;;;4968175;28;20053;-74
2023/10/19 10:40:47;;;;;;;2.17;1.98;;;10.00;99.90;;;;;;4934589;28;20192;-74
2023/10/19 10:43:13;;;;;;;2.58;2.38;;;10.00;99.90;;;;;;4952796;28;20049;-75
2023/10/19 10:45:39;;;;;;;2.45;2.25;;;10.10;99.90;;;;;;4934770;28;20046;-75
2023/10/19 10:48:14;;;;;;;2.30;2.15;;;10.10;99.90;;;;;;4951608;28;20078;-75
2023/10/19 10:50:41;;;;;;;1.88;1.58;;;10.10;99.90;;;;;;4951223;28;20050;-75
2023/10/19 10:53:08;;;;;;;3.15;2.95;;;10.10;99.90;;;;;;4955190;28;20066;-75
2023/10/19 10:55:34;;;;;;;15.57;2.97;;;10.20;99.90;;;;;;4946998;28;20061;-75
2023/10/19 10:58:00;;;;;;;2.53;2.35;;;10.20;99.90;;;;;;4967545;28;20038;-75
2023/10/19 11:00:26;;;;;;;3.75;3.30;;;10.20;99.90;;;;;;4962660;28;20054;-75
2023/10/19 11:03:08;;;;;;;1.85;1.75;;;10.20;99.90;;;;;;4967839;28;20046;-75
2023/10/19 11:05:35;;;;;;;1.60;1.50;;;10.30;99.90;;;;;;4961746;28;20049;-75
2023/10/19 11:08:16;;;;;;;2.20;1.83;;;10.30;99.90;;;;;;4967238;28;20039;-75
2023/10/19 11:10:45;;;;;;;3.28;1.52;;;10.40;99.90;;;;;;4970360;28;20054;-76
2023/10/19 11:13:13;;;;;;;5.25;2.05;;;10.40;99.90;;;;;;4951508;28;20050;-76
2023/10/19 11:15:47;;;;;;;1.42;1.38;;;10.40;99.90;;;;;;4967447;28;20510;-76
2023/10/19 11:18:39;;;;;;;0.93;0.93;;;10.40;99.90;;;;;;4951207;28;20047;-76
2023/10/19 11:21:10;;;;;;;2.95;2.42;;;10.40;99.90;;;;;;4966345;28;20047;-77
2023/10/19 11:23:48;;;;;;;3.25;3.03;;;10.40;99.90;;;;;;4966807;28;20043;-77
2023/10/19 11:26:26;;;;;;;2.63;2.38;;;10.40;99.90;;;;;;4959987;28;20062;-75
2023/10/19 11:29:00;;;;;;;1.25;1.25;;;10.40;99.90;;;;;;4955173;28;20050;-76
2023/10/19 11:31:27;;;;;;;1.60;1.50;;;10.40;99.90;;;;;;4951101;28;20519;-75
2023/10/19 11:33:58;;;;;;;1.17;1.08;;;10.40;99.90;;;;;;4952868;28;20122;-75
2023/10/19 11:36:24;;;;;;;3.20;3.00;;;10.40;99.90;;;;;;4951428;28;20105;-75
2023/10/19 11:38:52;;;;;;;2.67;2.30;;;10.40;99.90;;;;;;4967079;28;20051;-75
2023/10/19 11:41:18;;;;;;;2.55;2.35;;;10.40;99.90;;;;;;4950490;28;20054;-75
2023/10/19 11:43:48;;;;;;;3.67;2.53;;;10.40;99.90;;;;;;4952390;28;20129;-75
2023/10/19 11:46:17;;;;;;;1.83;1.63;;;10.50;99.90;;;;;;4950786;28;20055;-76
2023/10/19 11:48:43;;;;;;;4.45;3.05;;;10.50;99.90;;;;;;4968970;28;20043;-75
2023/10/19 11:51:14;;;;;;;3.67;2.53;;;10.50;99.90;;;;;;4970368;28;20043;-75
2023/10/19 11:53:42;;;;;;;2.47;1.90;;;10.60;99.90;;;;;;4954441;28;20050;-75
2023/10/19 11:56:11;;;;;;;5.40;2.88;;;10.60;99.90;;;;;;4950862;28;20043;-75
2023/10/19 11:58:39;;;;;;;3.05;2.88;;;10.70;99.90;;;;;;4943758;28;20124;-75
2023/10/19 12:01:08;;;;;;;2.53;1.80;;;10.80;99.90;;;;;;4953750;28;20149;-75
2023/10/19 12:03:40;;;;;;;2.70;2.45;;;10.70;99.90;;;;;;4971695;28;20054;-75
2023/10/19 12:06:10;;;;;;;3.70;2.67;;;10.70;99.90;;;;;;4970943;28;20038;-75
2023/10/19 12:08:36;;;;;;;3.75;3.40;;;10.70;99.90;;;;;;4974310;28;20038;-75
2023/10/19 12:11:03;;;;;;;3.08;2.88;;;10.70;99.90;;;;;;4972655;28;20058;-76
2023/10/19 12:13:31;;;;;;;2.75;2.55;;;10.80;99.90;;;;;;4975902;28;20038;-75
2023/10/19 12:15:57;;;;;;;3.72;2.67;;;10.80;99.90;;;;;;4974996;28;20057;-75
2023/10/19 12:18:26;;;;;;;4.05;3.72;;;10.70;99.90;;;;;;4977867;28;20054;-76
2023/10/19 12:20:56;;;;;;;;;;;10.70;99.90;;;;;;4977004;28;21568;-76
2023/10/19 12:23:23;;;;;;;3.05;2.72;;;10.70;99.90;;;;;;4978062;28;19976;-76
2023/10/19 12:25:49;;;;;;;3.75;3.45;;;10.70;99.90;;;;;;4956803;28;20046;-76
2023/10/19 12:28:15;;;;;;;10.43;2.72;;;10.70;99.90;;;;;;4992997;28;20058;-76
2023/10/19 12:30:41;;;;;;;5.03;3.88;;;10.70;99.90;;;;;;4973602;28;20045;-75
2023/10/19 12:33:13;;;;;;;7.38;3.85;;;10.70;99.90;;;;;;4977180;28;20086;-76
2023/10/19 12:35:45;;;;;;;4.38;3.25;;;10.70;99.90;;;;;;4974174;28;20059;-75
2023/10/19 12:38:15;;;;;;;4.38;3.72;;;10.70;99.90;;;;;;4972676;28;20051;-76
2023/10/19 12:40:46;;;;;;;8.80;4.30;;;10.70;99.90;;;;;;4971513;28;22515;-75
2023/10/19 12:43:13;;;;;;;3.67;3.10;;;10.70;99.90;;;;;;4976225;28;20058;-76
2023/10/19 12:45:39;;;;;;;8.60;3.47;;;10.70;99.90;;;;;;4973321;28;20081;-75
2023/10/19 12:48:06;;;;;;;4.20;3.78;;;10.80;99.90;;;;;;4974117;28;20286;-76
2023/10/19 12:50:34;;;;;;;2.80;2.58;;;10.80;99.90;;;;;;4957372;28;20054;-76
2023/10/19 12:53:00;;;;;;;4.63;3.58;;;10.80;99.90;;;;;;4976708;28;20050;-76
2023/10/19 12:55:27;;;;;;;4.05;3.65;;;10.90;99.90;;;;;;4982906;28;20480;-76
2023/10/19 12:58:06;;;;;;;3.70;3.47;;;10.80;99.90;;;;;;4992323;28;20506;-76
2023/10/19 13:00:41;;;;;;;4.72;4.32;;;10.80;99.90;;;;;;4974602;28;20145;-75
2023/10/19 13:03:13;;;;;;;4.00;3.70;;;10.80;99.90;;;;;;4990315;28;20041;-75
2023/10/19 13:05:40;;;;;;;5.22;4.72;;;10.80;99.90;;;;;;4992053;28;20046;-76
2023/10/19 13:08:13;;;;;;;4.63;3.90;;;10.80;99.90;;;;;;5009696;28;20399;-76
2023/10/19 13:10:41;;;;;;;2.78;2.58;;;10.80;99.90;;;;;;4993448;28;20121;-76
2023/10/19 13:13:12;;;;;;;3.03;2.53;;;10.80;99.90;;;;;;4984116;28;20042;-75
2023/10/19 13:15:39;;;;;;;4.15;3.78;;;10.80;99.90;;;;;;4992290;28;20511;-75
2023/10/19 13:18:07;;;;;;;4.35;3.00;;;10.90;99.90;;;;;;4985845;28;20088;-75
2023/10/19 13:20:36;;;;;;;2.97;2.75;;;10.90;99.90;;;;;;4980055;28;20038;-75
2023/10/19 13:23:11;;;;;;;1.63;1.52;;;10.90;99.90;;;;;;4993015;28;20449;-76
2023/10/19 13:25:39;;;;;;;3.92;2.67;;;10.90;99.90;;;;;;4975195;28;20052;-75